Time;durP1;ratioP1;P1;durP2;ratioP2;P2;SDS_P1;SDS_P2;PMS_P1;PMS_P2;Temp;Humidity;BMP_temperature;BMP_pressure;BME280_temperature;BME280_humidity;BME280_pressure;Samples;Min_cycle;Max_cycle;Signal;HPM_P1;HPM_P2
2022/12/17 13:06:53;;;;;;;16.90;9.73;;;;;;;-2.25;97.50;101983.53;6273374;22;20057;-81
2022/12/17 13:09:28;;;;;;;18.95;10.57;;;;;;;-2.24;96.83;101982.72;6251065;22;20011;-80
2022/12/17 13:12:05;;;;;;;17.65;9.73;;;;;;;-2.20;97.14;101984.72;6278934;22;20012;-79
2022/12/17 13:15:06;;;;;;;20.27;9.55;;;;;;;-2.18;96.05;101985.69;6251003;22;20045;-81
2022/12/17 13:18:07;;;;;;;;;;;;;;;;;;;;;
2022/12/17 13:21:18;;;;;;;17.92;9.40;;;;;;;-2.22;96.32;101997.44;6123662;23;20030;-79
2022/12/17 13:23:49;;;;;;;16.80;8.48;;;;;;;-2.23;96.73;101993.09;6147092;22;20019;-81
2022/12/17 13:26:39;;;;;;;15.00;8.35;;;;;;;-2.28;96.25;101991.00;6193947;22;20015;-82
2022/12/17 13:30:01;;;;;;;;;;;;;;;;;;;;;
2022/12/17 13:33:25;;;;;;;18.98;9.65;;;;;;;-2.36;97.25;101993.97;6173412;22;20054;-80
2022/12/17 13:36:09;;;;;;;15.40;9.00;;;;;;;-2.34;97.14;101996.66;6219121;22;20026;-81
2022/12/17 13:42:34;;;;;;;15.90;9.30;;;;;;;-2.16;96.41;101996.94;6258456;22;20018;-80
2022/12/17 13:45:02;;;;;;;15.57;9.25;;;;;;;-2.13;96.09;102007.41;6221435;22;20030;-80
2022/12/17 13:47:34;;;;;;;14.98;8.77;;;;;;;-2.16;96.11;102012.34;6220710;22;20019;-79
2022/12/17 13:50:04;;;;;;;15.23;8.38;;;;;;;-2.17;95.22;102016.56;6219276;22;20053;-80
2022/12/17 13:52:33;;;;;;;14.15;8.30;;;;;;;-2.30;95.35;102005.44;6244273;22;20012;-81
2022/12/17 13:55:13;;;;;;;14.20;9.05;;;;;;;-2.46;96.63;102014.69;6272638;22;20018;-82
2022/12/17 13:57:46;;;;;;;19.58;9.20;;;;;;;-2.50;97.23;102012.72;6219025;22;20046;-79
2022/12/17 14:00:27;;;;;;;13.38;8.55;;;;;;;-2.54;97.47;102015.84;6243653;22;20091;-80
2022/12/17 14:02:54;;;;;;;18.30;10.30;;;;;;;-2.57;98.18;102011.41;6213993;22;20016;-80
2022/12/17 14:05:33;;;;;;;11.90;8.38;;;;;;;-2.53;98.06;102021.09;6218345;22;20054;-80
2022/12/17 14:08:04;;;;;;;17.65;10.23;;;;;;;-2.57;98.19;102020.75;6217860;22;20012;-80
2022/12/17 14:10:31;;;;;;;16.17;8.68;;;;;;;-2.58;97.97;102018.97;6192524;22;20008;-79
2022/12/17 14:13:06;;;;;;;15.65;9.43;;;;;;;-2.55;97.56;102022.66;6213258;22;20428;-79
2022/12/17 14:15:33;;;;;;;23.13;10.27;;;;;;;-2.55;98.00;102025.22;6242501;22;20334;-79
2022/12/17 14:18:02;;;;;;;13.02;8.43;;;;;;;-2.55;97.52;102025.22;6241149;22;20015;-79
2022/12/17 14:20:38;;;;;;;16.65;10.07;;;;;;;-2.66;97.91;102032.19;6241378;22;20020;-80
2022/12/17 14:23:32;;;;;;;18.38;9.30;;;;;;;-2.68;97.87;102032.88;6242230;22;20012;-80
2022/12/17 14:25:59;;;;;;;16.52;9.85;;;;;;;-2.77;98.59;102032.25;6224541;22;20461;-82
2022/12/17 14:28:36;;;;;;;18.85;10.27;;;;;;;-2.81;98.94;102035.41;6252279;22;20095;-82
2022/12/17 14:31:19;;;;;;;17.77;10.52;;;;;;;-2.85;99.38;102034.31;6246069;22;20012;-79
2022/12/17 14:33:48;;;;;;;18.35;11.32;;;;;;;-2.83;99.79;102033.63;6246227;22;20099;-79
2022/12/17 14:36:24;;;;;;;23.48;9.90;;;;;;;-2.87;99.29;102033.28;6242708;22;20819;-79
2022/12/17 14:38:58;;;;;;;19.48;11.25;;;;;;;-2.91;99.60;102039.88;6214951;22;20018;-79
2022/12/17 14:44:24;;;;;;;19.17;10.55;;;;;;;-2.96;99.70;102040.34;6245966;22;20066;-79
2022/12/17 14:47:14;;;;;;;15.73;10.45;;;;;;;-2.99;100.00;102043.59;6240051;22;20034;-79
2022/12/17 14:49:55;;;;;;;15.90;9.65;;;;;;;-3.00;100.00;102044.38;6250827;22;20024;-79
2022/12/17 14:52:37;;;;;;;20.70;11.38;;;;;;;-3.05;99.95;102050.84;6242171;22;20011;-81
2022/12/17 14:55:25;;;;;;;17.83;10.52;;;;;;;-3.12;100.00;102048.66;6241608;22;20647;-79
2022/12/17 14:57:53;;;;;;;16.67;10.88;;;;;;;-3.18;100.00;102055.16;6238935;22;20085;-81
2022/12/17 15:00:20;;;;;;;15.27;10.52;;;;;;;-3.22;100.00;102050.59;6216084;22;20015;-79
2022/12/17 15:02:54;;;;;;;19.23;10.90;;;;;;;-3.27;100.00;102044.25;6215195;22;20147;-79
2022/12/17 15:05:21;;;;;;;28.40;11.38;;;;;;;-3.35;100.00;102037.69;6243462;22;20012;-79
2022/12/17 15:07:47;;;;;;;19.85;12.43;;;;;;;-3.38;100.00;102042.63;6242447;22;20091;-80
2022/12/17 15:10:20;;;;;;;21.05;10.98;;;;;;;-3.46;100.00;102047.19;6195873;22;20086;-79
2022/12/17 15:12:50;;;;;;;17.60;11.48;;;;;;;-3.59;100.00;102052.25;6244172;22;20026;-80
2022/12/17 15:15:20;;;;;;;20.05;10.20;;;;;;;-3.71;100.00;102050.56;6269768;22;20544;-80
2022/12/17 15:17:47;;;;;;;23.60;11.43;;;;;;;-3.76;100.00;102051.03;6215445;22;20020;-78
2022/12/17 15:20:20;;;;;;;19.83;11.32;;;;;;;-3.75;100.00;102055.38;6267843;22;20015;-81
2022/12/17 15:22:48;;;;;;;20.67;10.85;;;;;;;-3.84;100.00;102053.91;6245439;22;20673;-81
2022/12/17 15:25:24;;;;;;;18.27;9.98;;;;;;;-3.90;100.00;102050.03;6247695;22;20044;-81
2022/12/17 15:27:51;;;;;;;19.70;10.15;;;;;;;-3.98;100.00;102054.59;6219839;22;20337;-81
2022/12/17 15:30:19;;;;;;;18.17;10.68;;;;;;;-3.99;100.00;102060.47;6219182;22;20068;-79
2022/12/17 15:32:46;;;;;;;17.45;9.68;;;;;;;-3.98;100.00;102064.81;6221499;22;20016;-81
2022/12/17 15:35:14;;;;;;;18.55;10.35;;;;;;;-3.97;100.00;102069.16;6246978;22;20011;-78
2022/12/17 15:37:41;;;;;;;18.33;10.32;;;;;;;-4.04;100.00;102062.72;6247892;22;20012;-81
2022/12/17 15:40:10;;;;;;;18.60;9.93;;;;;;;-4.03;100.00;102072.19;6225077;22;20102;-81
2022/12/17 15:45:25;;;;;;;19.08;10.50;;;;;;;-4.03;100.00;102076.38;6258449;22;20024;-80
2022/12/17 15:47:54;;;;;;;18.92;10.73;;;;;;;-4.05;100.00;102068.59;6282214;22;20016;-80
2022/12/17 15:50:21;;;;;;;17.15;11.43;;;;;;;-4.09;100.00;102060.59;6283345;22;20080;-81
2022/12/17 15:52:47;;;;;;;21.27;11.50;;;;;;;-4.09;100.00;102064.06;6232059;22;20079;-81
2022/12/17 15:55:16;;;;;;;23.05;12.15;;;;;;;-4.06;100.00;102066.81;6207866;22;20015;-80
2022/12/17 15:57:43;;;;;;;20.75;11.15;;;;;;;-4.11;100.00;102067.28;6233502;22;20030;-80
2022/12/17 16:00:11;;;;;;;22.40;12.65;;;;;;;-4.14;100.00;102075.63;6233624;22;20016;-81
2022/12/17 16:02:38;;;;;;;24.38;11.98;;;;;;;-4.17;100.00;102072.84;6208838;22;20021;-81
2022/12/17 16:05:11;;;;;;;26.47;12.43;;;;;;;-4.21;100.00;102081.94;6254667;22;20049;-79
2022/12/17 16:07:38;;;;;;;24.15;13.13;;;;;;;-4.26;100.00;102078.16;6249422;22;20065;-81
2022/12/17 16:10:08;;;;;;;20.25;11.05;;;;;;;-4.23;100.00;102074.94;6250013;22;20015;-79
2022/12/17 16:12:34;;;;;;;24.65;12.45;;;;;;;-4.26;100.00;102079.81;6200514;22;20041;-80
2022/12/17 16:15:01;;;;;;;25.92;12.05;;;;;;;-4.29;100.00;102077.91;6224223;22;20015;-81
2022/12/17 16:17:28;;;;;;;21.55;12.60;;;;;;;-4.33;100.00;102083.56;6221778;22;20020;-80
2022/12/17 16:19:55;;;;;;;22.00;11.55;;;;;;;-4.39;100.00;102080.59;6224914;22;20019;-81
2022/12/17 16:22:22;;;;;;;22.27;11.63;;;;;;;-4.42;100.00;102075.22;6230928;22;20393;-80
2022/12/17 16:24:51;;;;;;;20.83;12.05;;;;;;;-4.50;100.00;102084.88;6197153;22;20023;-80
2022/12/17 16:27:20;;;;;;;17.33;11.45;;;;;;;-4.54;100.00;102085.41;6272307;22;20015;-79
2022/12/17 16:29:47;;;;;;;18.13;11.10;;;;;;;-4.58;100.00;102084.28;6218559;22;20026;-79
2022/12/17 16:32:15;;;;;;;18.55;13.30;;;;;;;-4.62;100.00;102094.19;6246439;22;20012;-80
2022/12/17 16:34:43;;;;;;;27.25;13.23;;;;;;;-4.61;100.00;102095.97;6245599;22;20422;-79
2022/12/17 16:37:10;;;;;;;29.48;13.10;;;;;;;-4.62;100.00;102089.06;6239676;22;20022;-80
2022/12/17 16:39:37;;;;;;;25.23;15.65;;;;;;;-4.62;100.00;102099.28;6242983;22;20726;-81
2022/12/17 16:42:05;;;;;;;23.90;13.88;;;;;;;-4.68;100.00;102104.81;6219605;22;20594;-78
2022/12/17 16:44:31;;;;;;;23.37;13.73;;;;;;;-4.72;100.00;102105.34;6220555;22;20023;-81
2022/12/17 16:46:59;;;;;;;21.75;12.70;;;;;;;-4.71;100.00;102104.59;6221151;22;20325;-81
2022/12/17 16:49:27;;;;;;;23.10;13.03;;;;;;;-4.70;100.00;102106.38;6247709;22;20022;-81
2022/12/17 16:51:58;;;;;;;22.90;13.30;;;;;;;-4.76;100.00;102101.66;6220537;22;20019;-80
2022/12/17 16:54:31;;;;;;;21.27;12.07;;;;;;;-4.74;100.00;102102.69;6197456;22;20027;-80
2022/12/17 16:56:58;;;;;;;23.35;12.75;;;;;;;-4.71;100.00;102105.47;6223192;22;20102;-80
2022/12/17 16:59:25;;;;;;;23.70;13.48;;;;;;;-4.77;100.00;102112.69;6243724;22;20012;-79
2022/12/17 17:01:52;;;;;;;21.33;12.83;;;;;;;-4.73;100.00;102107.03;6242912;22;20019;-80
2022/12/17 17:04:22;;;;;;;28.13;14.48;;;;;;;-4.72;100.00;102108.81;6244477;22;20024;-80
2022/12/17 17:06:55;;;;;;;20.75;12.48;;;;;;;-4.75;100.00;102113.66;6219048;22;20030;-79
2022/12/17 17:09:24;;;;;;;23.73;11.73;;;;;;;-4.84;100.00;102116.44;6244307;22;20486;-80
2022/12/17 17:11:51;;;;;;;25.30;11.93;;;;;;;-4.86;100.00;102115.41;6242980;22;20011;-79
2022/12/17 17:14:19;;;;;;;21.70;12.07;;;;;;;-4.83;100.00;102115.63;6218021;22;20079;-78
2022/12/17 17:16:45;;;;;;;23.45;13.25;;;;;;;-4.87;100.00;102126.41;6244520;22;20023;-80
2022/12/17 17:19:12;;;;;;;34.73;18.03;;;;;;;-4.90;100.00;102127.81;6217550;22;20054;-79
2022/12/17 17:21:42;;;;;;;23.63;13.65;;;;;;;-4.95;100.00;102121.44;6242352;22;20087;-80
2022/12/17 17:24:15;;;;;;;22.57;11.60;;;;;;;-4.97;100.00;102140.91;6271682;22;20022;-76
2022/12/17 17:26:42;;;;;;;23.48;13.20;;;;;;;-5.00;100.00;102129.66;6242090;22;20331;-80
2022/12/17 17:29:09;;;;;;;21.83;12.57;;;;;;;-5.03;100.00;102131.06;6241943;22;20060;-77
2022/12/17 17:31:38;;;;;;;21.55;12.45;;;;;;;-5.08;100.00;102130.72;6269827;22;20011;-78
2022/12/17 17:34:15;;;;;;;28.20;13.00;;;;;;;-5.08;100.00;102132.41;6244794;22;20090;-79
2022/12/17 17:36:42;;;;;;;25.07;12.60;;;;;;;-5.09;100.00;102131.50;6245434;22;20022;-77
2022/12/17 17:39:09;;;;;;;20.33;13.17;;;;;;;-5.09;100.00;102133.16;6246467;22;20067;-80
2022/12/17 17:41:36;;;;;;;26.50;13.30;;;;;;;-5.09;100.00;102133.16;6243170;22;20130;-79
2022/12/17 17:44:08;;;;;;;31.20;14.40;;;;;;;-5.14;100.00;102143.00;6220573;22;20008;-79
2022/12/17 17:46:35;;;;;;;24.40;13.60;;;;;;;-5.17;100.00;102148.75;6246889;22;20031;-78
2022/12/17 17:49:08;;;;;;;17.33;11.27;;;;;;;-5.21;100.00;102144.19;6222973;22;20015;-80
2022/12/17 17:51:47;;;;;;;25.80;13.17;;;;;;;-5.26;100.00;102148.03;6220306;22;20016;-77
2022/12/17 17:54:17;;;;;;;27.03;13.90;;;;;;;-5.25;100.00;102154.94;6248978;22;20099;-79
2022/12/17 17:56:44;;;;;;;27.13;13.47;;;;;;;-5.26;100.00;102158.25;6220798;22;20065;-78
2022/12/17 17:59:16;;;;;;;27.67;14.33;;;;;;;-5.30;100.00;102151.13;6246684;22;20012;-77
2022/12/17 18:01:46;;;;;;;32.13;16.57;;;;;;;-5.34;100.00;102147.44;6222372;22;20016;-78
2022/12/17 18:04:18;;;;;;;23.60;13.53;;;;;;;-5.37;100.00;102153.94;6246921;22;20022;-78
2022/12/17 18:06:46;;;;;;;28.07;15.70;;;;;;;-5.45;100.00;102157.56;6247309;22;20067;-77
2022/12/17 18:09:13;;;;;;;25.93;14.43;;;;;;;-5.46;100.00;102158.31;6221548;22;20049;-77
2022/12/17 18:11:42;;;;;;;24.87;12.87;;;;;;;-5.50;100.00;102160.63;6244796;22;20031;-79
2022/12/17 18:14:11;;;;;;;30.97;13.73;;;;;;;-5.50;100.00;102162.28;6248307;22;20016;-80
2022/12/17 18:16:44;;;;;;;35.10;16.47;;;;;;;-5.48;100.00;102158.19;6249125;22;20019;-79
2022/12/17 18:19:14;;;;;;;26.20;15.13;;;;;;;-5.49;100.00;102164.06;6248989;22;20050;-79
2022/12/17 18:21:41;;;;;;;31.40;14.53;;;;;;;-5.46;100.00;102165.97;6246813;22;20019;-79
2022/12/17 18:24:13;;;;;;;22.87;14.13;;;;;;;-5.46;100.00;102168.53;6250325;22;20011;-77
2022/12/17 18:26:42;;;;;;;23.63;14.40;;;;;;;-5.53;100.00;102170.59;6249954;22;20087;-79
2022/12/17 18:29:22;;;;;;;29.13;14.47;;;;;;;-5.59;100.00;102165.00;6248474;22;20429;-80
2022/12/17 18:31:50;;;;;;;25.37;13.50;;;;;;;-5.65;100.00;102178.13;6247358;22;20118;-79
2022/12/17 18:34:21;;;;;;;26.07;15.17;;;;;;;-5.64;100.00;102181.59;6220901;22;20016;-80
2022/12/17 18:36:49;;;;;;;26.83;13.10;;;;;;;-5.62;100.00;102174.94;6246636;22;20052;-78
2022/12/17 18:39:23;;;;;;;28.70;14.57;;;;;;;-5.66;100.00;102173.81;6246366;22;20023;-79
2022/12/17 18:44:44;;;;;;;26.20;13.70;;;;;;;-5.78;100.00;102184.69;6233135;22;19947;-80
2022/12/17 18:47:11;;;;;;;31.23;16.03;;;;;;;-5.77;100.00;102199.22;6227949;22;20015;-77
2022/12/17 18:49:39;;;;;;;22.20;12.90;;;;;;;-5.81;100.00;102203.16;6251741;22;20026;-81
2022/12/17 18:52:11;;;;;;;29.50;15.20;;;;;;;-5.82;100.00;102201.38;6279861;22;20004;-80
2022/12/17 18:54:40;;;;;;;26.97;13.83;;;;;;;-5.86;100.00;102204.44;6234669;22;20026;-80
2022/12/17 18:57:09;;;;;;;21.60;13.37;;;;;;;-5.88;100.00;102200.88;6226940;22;20012;-80
2022/12/17 18:59:47;;;;;;;;;;;;;;;;;;;;;
2022/12/17 19:02:20;;;;;;;27.03;15.57;;;;;;;-5.97;100.00;102206.13;6226498;22;20016;-80
2022/12/17 19:04:50;;;;;;;31.50;16.17;;;;;;;-6.01;100.00;102209.19;6252362;22;20019;-78
2022/12/17 19:07:21;;;;;;;30.83;16.13;;;;;;;-5.96;100.00;102207.88;6278984;22;20016;-80
2022/12/17 19:09:51;;;;;;;29.77;15.60;;;;;;;-5.96;100.00;102215.53;6224048;22;20046;-80
2022/12/17 19:12:21;;;;;;;33.57;17.20;;;;;;;-5.98;100.00;102215.41;6222256;22;20018;-80
2022/12/17 19:18:06;;;;;;;25.53;14.30;;;;;;;-6.10;100.00;102221.16;6256849;22;20065;-81
2022/12/17 19:28:31;;;;;;;24.07;13.03;;;;;;;-6.06;100.00;102216.47;5956561;24;20057;-80
2022/12/17 19:34:38;;;;;;;;;;;;;;;;;;;;;
2022/12/17 19:37:18;;;;;;;;;;;;;;;;;;;;;
2022/12/17 19:40:06;;;;;;;23.30;12.57;;;;;;;-6.09;100.00;102216.19;6143845;23;20044;-79
2022/12/17 19:42:58;;;;;;;;;;;;;;;;;;;;;
2022/12/17 19:45:25;;;;;;;27.37;13.70;;;;;;;-6.13;100.00;102214.16;6146035;23;20971;-80
2022/12/17 19:47:56;;;;;;;23.73;14.63;;;;;;;-6.17;100.00;102217.22;6157921;23;20604;-78
2022/12/17 19:50:23;;;;;;;21.47;13.20;;;;;;;-6.16;100.00;102213.91;6156568;23;20060;-82
2022/12/17 19:52:51;;;;;;;25.80;12.70;;;;;;;-6.17;100.00;102225.75;6156360;23;20021;-80
2022/12/17 19:55:20;;;;;;;22.07;11.93;;;;;;;-6.21;100.00;102216.06;6181337;23;20020;-81
2022/12/17 19:57:48;;;;;;;25.77;14.50;;;;;;;-6.23;100.00;102219.25;6156512;23;20075;-80
2022/12/17 20:00:16;;;;;;;24.37;14.77;;;;;;;-6.22;100.00;102216.84;6157539;23;20099;-80
2022/12/17 20:02:43;;;;;;;36.17;19.97;;;;;;;-6.22;100.00;102219.41;6157079;23;20375;-81
2022/12/17 20:05:10;;;;;;;30.37;16.87;;;;;;;-6.21;100.00;102212.63;6158365;23;20087;-81
2022/12/17 20:07:37;;;;;;;33.30;16.87;;;;;;;-6.21;100.00;102221.16;6180546;23;20048;-81
2022/12/17 20:10:08;;;;;;;31.10;17.40;;;;;;;-6.17;100.00;102218.09;6157445;23;20377;-80
2022/12/17 20:12:39;;;;;;;22.53;12.30;;;;;;;-6.19;100.00;102223.84;6134409;23;20032;-80
2022/12/17 20:15:06;;;;;;;40.80;18.60;;;;;;;-6.21;100.00;102231.34;6133299;23;20049;-80
2022/12/17 20:17:33;;;;;;;36.10;18.13;;;;;;;-6.25;100.00;102231.88;6131015;23;20041;-79
2022/12/17 20:20:02;;;;;;;27.40;13.77;;;;;;;-6.29;100.00;102228.94;6153539;23;20035;-79
2022/12/17 20:22:29;;;;;;;30.57;17.00;;;;;;;-6.30;100.00;102234.81;6152994;23;20016;-79
2022/12/17 20:24:57;;;;;;;31.43;15.90;;;;;;;-6.34;100.00;102234.53;6154484;23;20036;-79
2022/12/17 20:27:26;;;;;;;30.40;13.87;;;;;;;-6.36;100.00;102230.97;6129671;23;20082;-80
2022/12/17 20:29:53;;;;;;;29.97;15.03;;;;;;;-6.38;100.00;102229.94;6153475;23;20025;-81
2022/12/17 20:32:20;;;;;;;32.60;16.77;;;;;;;-6.42;100.00;102230.44;6152000;23;20571;-80
2022/12/17 20:34:47;;;;;;;28.13;14.90;;;;;;;-6.42;100.00;102235.53;6151896;23;20099;-81
2022/12/17 20:37:13;;;;;;;28.67;13.93;;;;;;;-6.45;100.00;102232.75;6152612;23;20099;-80
2022/12/17 20:39:40;;;;;;;28.53;15.80;;;;;;;-6.45;100.00;102239.47;6176835;23;20043;-81
2022/12/17 20:42:08;;;;;;;33.30;15.17;;;;;;;-6.50;100.00;102244.19;6151070;23;20017;-82
2022/12/17 20:44:34;;;;;;;25.17;13.40;;;;;;;-6.54;100.00;102243.03;6104432;23;20025;-80
2022/12/17 20:47:01;;;;;;;25.93;14.13;;;;;;;-6.53;100.00;102249.00;6154298;23;20017;-80
2022/12/17 20:49:28;;;;;;;23.83;14.43;;;;;;;-6.55;100.00;102251.41;6153560;23;20025;-79
2022/12/17 20:51:56;;;;;;;27.37;16.13;;;;;;;-6.57;100.00;102249.50;6130341;23;20032;-80
2022/12/17 20:54:23;;;;;;;25.33;14.07;;;;;;;-6.58;100.00;102258.81;6155530;23;20079;-80
2022/12/17 20:56:50;;;;;;;26.07;13.30;;;;;;;-6.60;100.00;102267.09;6179932;23;20099;-80
2022/12/17 20:59:18;;;;;;;27.93;15.30;;;;;;;-6.57;100.00;102264.78;6153203;23;20024;-81
2022/12/17 21:01:46;;;;;;;35.20;16.60;;;;;;;-6.59;100.00;102264.66;6176107;23;20083;-80
2022/12/17 21:04:15;;;;;;;28.27;15.53;;;;;;;-6.61;100.00;102273.81;6184503;23;20024;-80
2022/12/17 21:06:47;;;;;;;37.53;15.80;;;;;;;-6.54;100.00;102275.25;6157317;23;20020;-80
2022/12/17 21:09:17;;;;;;;26.43;13.60;;;;;;;-6.55;100.00;102273.47;6158699;23;20021;-79
2022/12/17 21:11:43;;;;;;;22.27;12.60;;;;;;;-6.46;100.00;102278.47;6186647;23;20027;-81
2022/12/17 21:14:15;;;;;;;23.73;13.57;;;;;;;-6.44;100.00;102275.28;6131823;23;20026;-78
2022/12/17 21:16:43;;;;;;;22.70;13.07;;;;;;;-6.47;100.00;102275.00;6154726;23;20051;-79
2022/12/17 21:19:18;;;;;;;22.07;11.00;;;;;;;-6.48;100.00;102278.31;6154374;23;20033;-79
2022/12/17 21:21:44;;;;;;;19.37;12.03;;;;;;;-6.51;100.00;102276.41;6179161;23;20025;-78
2022/12/17 21:24:11;;;;;;;19.43;12.67;;;;;;;-6.54;100.00;102280.34;6153065;23;20017;-80
2022/12/17 21:26:42;;;;;;;23.03;12.30;;;;;;;-6.57;100.00;102277.53;6178086;23;20020;-80
2022/12/17 21:29:09;;;;;;;20.97;11.60;;;;;;;-6.60;100.00;102277.28;6151012;23;20108;-81
2022/12/17 21:31:40;;;;;;;17.30;10.60;;;;;;;-6.62;100.00;102278.78;6153297;23;20618;-80
2022/12/17 21:34:14;;;;;;;34.07;17.83;;;;;;;-6.60;100.00;102278.16;6152031;23;20021;-80
2022/12/17 21:36:41;;;;;;;19.33;12.02;;;;;;;-6.61;100.00;102281.44;6151681;23;20176;-79
2022/12/17 21:39:11;;;;;;;20.03;10.67;;;;;;;-6.59;100.00;102286.72;6152264;23;20032;-79
2022/12/17 21:41:40;;;;;;;19.43;11.43;;;;;;;-6.55;100.00;102288.75;6155602;23;20460;-80
2022/12/17 21:44:11;;;;;;;21.47;11.63;;;;;;;-6.54;100.00;102295.66;6151901;23;20720;-81
2022/12/17 21:46:38;;;;;;;21.47;10.37;;;;;;;-6.55;100.00;102294.72;6151485;23;20655;-81
2022/12/17 21:49:05;;;;;;;17.87;11.33;;;;;;;-6.60;100.00;102295.97;6175145;23;20099;-77
2022/12/17 21:51:32;;;;;;;19.30;10.87;;;;;;;-6.63;100.00;102297.38;6174101;23;20021;-80
2022/12/17 21:54:02;;;;;;;17.10;10.50;;;;;;;-6.67;100.00;102309.84;6150080;23;20067;-78
2022/12/17 21:56:29;;;;;;;20.43;10.50;;;;;;;-6.69;100.00;102300.28;6125200;23;20044;-79
2022/12/17 21:59:01;;;;;;;18.23;11.47;;;;;;;-6.72;100.00;102303.44;6174550;23;20048;-77
2022/12/17 22:01:33;;;;;;;20.50;11.87;;;;;;;-6.76;100.00;102297.97;6151157;23;20017;-80
2022/12/17 22:04:03;;;;;;;24.10;12.03;;;;;;;-6.76;100.00;102308.16;6151586;23;20052;-80
2022/12/17 22:06:37;;;;;;;22.37;11.57;;;;;;;-6.75;100.00;102305.75;6150899;23;20197;-77
2022/12/17 22:09:05;;;;;;;21.85;11.43;;;;;;;-6.75;100.00;102303.19;6149394;23;20056;-78
2022/12/17 22:11:32;;;;;;;16.10;11.23;;;;;;;-6.71;100.00;102310.34;6153118;23;20020;-78
2022/12/17 22:14:09;;;;;;;20.70;11.20;;;;;;;-6.74;100.00;102304.06;6152890;23;20100;-80
2022/12/17 22:16:46;;;;;;;21.23;10.37;;;;;;;-6.75;100.00;102310.84;6155430;23;20024;-78
2022/12/17 22:19:22;;;;;;;20.27;13.13;;;;;;;-6.76;100.00;102318.34;6126087;23;20060;-79
2022/12/17 22:21:51;;;;;;;24.17;10.53;;;;;;;-6.74;100.00;102320.28;6151415;23;20259;-80
2022/12/17 22:24:21;;;;;;;20.10;10.80;;;;;;;-6.77;100.00;102324.19;6153032;23;20515;-79
2022/12/17 22:26:48;;;;;;;18.93;12.07;;;;;;;-6.81;100.00;102321.34;6153925;23;20499;-79
2022/12/17 22:32:58;;;;;;;17.60;11.53;;;;;;;-6.84;100.00;102321.09;6150889;23;20861;-79
2022/12/17 22:34:43;;;;;;;16.60;10.17;;;;;;;-6.82;100.00;102314.50;6128316;23;20028;-80
2022/12/17 22:37:10;;;;;;;20.40;11.73;;;;;;;-6.83;100.00;102320.34;6154738;23;20017;-80
2022/12/17 22:39:36;;;;;;;17.63;9.93;;;;;;;-6.82;100.00;102319.59;6151601;23;20017;-80
2022/12/17 22:44:47;;;;;;;23.60;11.40;;;;;;;-6.79;100.00;102325.69;6157752;23;20044;-80
2022/12/17 22:47:14;;;;;;;22.97;10.70;;;;;;;-6.76;100.00;102321.78;6155399;23;20025;-78
2022/12/17 22:49:41;;;;;;;17.53;9.30;;;;;;;-6.76;100.00;102324.31;6176599;23;20925;-77
2022/12/17 22:52:07;;;;;;;23.83;10.83;;;;;;;-6.77;100.00;102314.88;6152359;23;20017;-81
2022/12/17 22:54:34;;;;;;;18.80;12.10;;;;;;;-6.77;100.00;102322.53;6154508;23;20103;-78
2022/12/17 22:57:01;;;;;;;18.33;9.87;;;;;;;-6.83;100.00;102320.34;6154533;23;20032;-81
2022/12/17 22:59:28;;;;;;;20.53;10.57;;;;;;;-6.84;100.00;102313.47;6153875;23;20021;-79
2022/12/17 23:01:57;;;;;;;15.63;10.77;;;;;;;-6.85;100.00;102316.75;6154194;23;20051;-81
2022/12/17 23:04:24;;;;;;;22.43;11.07;;;;;;;-6.89;100.00;102324.88;6152653;23;20789;-79
2022/12/17 23:06:52;;;;;;;18.20;11.13;;;;;;;-6.89;100.00;102324.88;6157540;23;20057;-80
2022/12/17 23:09:19;;;;;;;23.13;11.10;;;;;;;-6.87;100.00;102328.47;6151451;23;20051;-79
2022/12/17 23:11:48;;;;;;;20.63;10.47;;;;;;;-6.89;100.00;102321.47;6127345;23;20017;-79
2022/12/17 23:14:16;;;;;;;20.50;11.93;;;;;;;-6.92;100.00;102313.53;6155575;23;20072;-81
2022/12/17 23:16:43;;;;;;;27.37;14.93;;;;;;;-6.96;100.00;102311.47;6158288;23;20076;-78
2022/12/17 23:19:13;;;;;;;21.17;11.10;;;;;;;-7.00;100.00;102312.84;6154741;23;20077;-80
2022/12/17 23:21:41;;;;;;;21.93;11.80;;;;;;;-7.04;100.00;102306.63;6154042;23;20048;-78
2022/12/17 23:24:09;;;;;;;18.40;11.07;;;;;;;-7.09;100.00;102306.94;6158413;23;20541;-79
2022/12/17 23:26:39;;;;;;;27.47;12.73;;;;;;;-7.11;100.00;102318.66;6154417;23;20448;-80
2022/12/17 23:29:12;;;;;;;20.17;11.63;;;;;;;-7.09;100.00;102322.22;6177891;23;20025;-79
2022/12/17 23:31:39;;;;;;;16.75;10.73;;;;;;;-7.13;100.00;102326.16;6156104;23;20503;-80
2022/12/17 23:34:07;;;;;;;17.83;11.00;;;;;;;-7.11;100.00;102332.25;6179486;23;20096;-80
2022/12/17 23:36:34;;;;;;;23.97;11.50;;;;;;;-7.12;100.00;102325.38;6126991;23;20449;-80
2022/12/17 23:39:01;;;;;;;20.50;10.17;;;;;;;-7.11;100.00;102333.94;6149790;23;20076;-80
2022/12/17 23:41:30;;;;;;;22.97;10.20;;;;;;;-7.08;100.00;102324.00;6150653;23;20460;-79
2022/12/17 23:43:59;;;;;;;24.50;11.50;;;;;;;-7.07;100.00;102321.59;6152647;23;20021;-79
2022/12/17 23:46:29;;;;;;;21.53;12.13;;;;;;;-7.10;100.00;102325.50;6157114;23;20044;-79
2022/12/17 23:48:58;;;;;;;23.80;11.73;;;;;;;-7.12;100.00;102330.47;6135314;23;20076;-81
2022/12/17 23:51:27;;;;;;;22.40;12.33;;;;;;;-7.15;100.00;102328.53;6153114;23;20063;-79
2022/12/17 23:53:53;;;;;;;18.60;11.13;;;;;;;-7.15;100.00;102335.28;6153004;23;20440;-79
2022/12/17 23:56:24;;;;;;;19.73;11.97;;;;;;;-7.17;100.00;102329.16;6158453;23;20116;-80
2022/12/17 23:59:00;;;;;;;16.63;11.70;;;;;;;-7.19;100.00;102326.50;6132590;23;20017;-80
